Time;durP1;ratioP1;P1;durP2;ratioP2;P2;SDS_P1;SDS_P2;PMS_P1;PMS_P2;Temp;Humidity;BMP_temperature;BMP_pressure;BME280_temperature;BME280_humidity;BME280_pressure;Samples;Min_cycle;Max_cycle;Signal;HPM_P1;HPM_P2
2021/11/23 00:01:31;;;;;;;6.53;6.13;;;3.50;56.50;;;;;;4974783;28;20469;-84
2021/11/23 00:03:56;;;;;;;7.07;6.57;;;3.40;55.80;;;;;;4979546;28;20179;-85
2021/11/23 00:06:22;;;;;;;6.43;5.97;;;3.40;56.00;;;;;;4976198;28;20182;-83
2021/11/23 00:08:49;;;;;;;7.10;6.60;;;3.40;55.60;;;;;;4973177;28;20248;-84
2021/11/23 00:11:17;;;;;;;6.60;6.00;;;3.30;55.70;;;;;;4973054;28;20430;-84
2021/11/23 00:13:43;;;;;;;7.50;7.00;;;3.30;55.50;;;;;;4973352;28;20476;-84
2021/11/23 00:16:11;;;;;;;6.47;6.07;;;3.20;55.80;;;;;;4972774;28;20533;-84
2021/11/23 00:18:37;;;;;;;7.17;6.67;;;3.20;56.20;;;;;;4973354;28;20648;-84
2021/11/23 00:21:03;;;;;;;7.13;6.63;;;3.20;55.60;;;;;;4973467;28;20468;-84
2021/11/23 00:23:29;;;;;;;7.43;6.83;;;3.20;55.80;;;;;;4972419;28;20171;-83
2021/11/23 00:25:54;;;;;;;6.60;6.20;;;3.20;55.80;;;;;;4972391;28;20425;-85
2021/11/23 00:28:20;;;;;;;7.57;7.07;;;3.20;56.00;;;;;;4972954;28;20279;-82
2021/11/23 00:30:46;;;;;;;7.43;6.93;;;3.20;55.60;;;;;;4972563;28;20181;-83
2021/11/23 00:33:12;;;;;;;7.57;7.07;;;3.20;55.90;;;;;;4972593;28;20269;-84
2021/11/23 00:35:38;;;;;;;7.27;6.77;;;3.20;55.70;;;;;;4972484;28;20430;-83
2021/11/23 00:38:04;;;;;;;6.90;6.33;;;3.10;56.20;;;;;;4972122;28;20476;-83
2021/11/23 00:40:30;;;;;;;7.00;6.60;;;3.10;55.50;;;;;;4972533;28;20226;-84
2021/11/23 00:42:57;;;;;;;7.40;6.90;;;3.10;56.20;;;;;;4972812;28;20847;-84
2021/11/23 00:45:23;;;;;;;6.63;6.13;;;3.10;56.20;;;;;;4971708;28;20269;-82
2021/11/23 00:47:49;;;;;;;7.60;7.10;;;3.10;55.80;;;;;;4972225;28;20497;-84
2021/11/23 00:50:16;;;;;;;7.27;6.67;;;3.10;56.20;;;;;;4972540;28;20178;-84
2021/11/23 00:52:42;;;;;;;7.10;6.70;;;3.00;56.00;;;;;;4971848;28;20571;-83
2021/11/23 00:55:08;;;;;;;8.07;7.47;;;3.00;55.60;;;;;;4971587;28;20422;-83
2021/11/23 00:57:35;;;;;;;7.77;7.10;;;3.00;56.10;;;;;;4971583;28;20418;-83
2021/11/23 01:00:00;;;;;;;6.87;6.27;;;2.90;56.00;;;;;;4971613;28;20469;-83
2021/11/23 01:02:26;;;;;;;8.00;7.50;;;2.90;56.70;;;;;;4971714;28;20415;-83
2021/11/23 01:04:52;;;;;;;8.37;7.57;;;2.90;56.00;;;;;;4971702;28;20418;-86
2021/11/23 01:07:18;;;;;;;8.10;7.50;;;2.90;56.00;;;;;;4971639;28;20289;-86
2021/11/23 01:09:44;;;;;;;8.20;7.60;;;2.90;56.10;;;;;;4972226;28;20643;-86
2021/11/23 01:12:09;;;;;;;7.63;7.10;;;2.90;56.00;;;;;;4971591;28;20441;-86
2021/11/23 01:14:36;;;;;;;7.93;7.40;;;2.90;56.10;;;;;;4971681;28;20457;-83
2021/11/23 01:17:02;;;;;;;7.77;7.27;;;3.00;56.10;;;;;;4971366;28;20213;-83
2021/11/23 01:19:28;;;;;;;8.33;7.70;;;3.00;56.00;;;;;;4971386;28;20409;-84
2021/11/23 01:21:54;;;;;;;7.40;6.90;;;3.00;55.90;;;;;;4971598;28;20470;-87
2021/11/23 01:24:19;;;;;;;7.50;7.00;;;2.90;56.10;;;;;;4971844;28;20178;-85
2021/11/23 01:26:45;;;;;;;8.03;7.43;;;3.00;56.10;;;;;;4971156;28;20171;-85
2021/11/23 01:29:11;;;;;;;8.07;7.43;;;3.00;54.40;;;;;;4970833;28;20210;-87
2021/11/23 01:31:37;;;;;;;7.73;7.13;;;3.00;55.70;;;;;;4971708;28;20182;-86
2021/11/23 01:34:04;;;;;;;7.33;6.83;;;3.00;55.50;;;;;;4981559;28;20425;-87
2021/11/23 01:36:30;;;;;;;7.33;6.83;;;2.90;56.00;;;;;;4982067;28;20422;-86
2021/11/23 01:38:59;;;;;;;7.73;7.13;;;3.00;56.00;;;;;;4974760;28;20418;-86
2021/11/23 01:41:24;;;;;;;7.90;7.20;;;2.90;55.70;;;;;;4971521;28;20519;-87
2021/11/23 01:43:50;;;;;;;7.40;6.90;;;2.90;55.40;;;;;;4971484;28;20505;-87
2021/11/23 01:46:16;;;;;;;7.90;7.40;;;2.90;54.40;;;;;;4970850;28;20684;-86
2021/11/23 01:48:42;;;;;;;7.80;7.20;;;2.90;54.70;;;;;;4970309;28;20449;-83
2021/11/23 01:51:08;;;;;;;7.33;6.73;;;2.90;55.40;;;;;;4970745;28;20541;-84
2021/11/23 01:53:34;;;;;;;8.98;8.18;;;2.90;55.70;;;;;;4970623;28;20182;-83
2021/11/23 01:56:00;;;;;;;8.83;8.13;;;2.90;55.70;;;;;;4970417;28;20181;-83
2021/11/23 01:58:25;;;;;;;7.70;7.10;;;2.90;55.00;;;;;;4970675;28;20782;-83
2021/11/23 02:00:51;;;;;;;7.73;7.23;;;2.90;55.50;;;;;;4970684;28;20233;-84
2021/11/23 02:03:17;;;;;;;7.50;6.90;;;2.80;55.90;;;;;;4970737;28;20422;-87
2021/11/23 02:05:44;;;;;;;8.57;7.97;;;2.70;55.90;;;;;;4971100;28;20265;-87
2021/11/23 02:08:12;;;;;;;7.30;6.80;;;2.80;56.20;;;;;;4970658;28;20477;-88
2021/11/23 02:10:40;;;;;;;7.80;7.30;;;2.70;55.90;;;;;;4971227;28;20457;-88
2021/11/23 02:13:06;;;;;;;8.13;7.53;;;2.70;55.90;;;;;;4970841;28;20914;-87
2021/11/23 02:15:32;;;;;;;8.07;7.47;;;2.60;55.80;;;;;;4970415;28;20864;-86
2021/11/23 02:17:59;;;;;;;8.65;8.00;;;2.60;57.50;;;;;;4970507;28;20773;-88
2021/11/23 02:20:25;;;;;;;8.07;7.47;;;2.60;57.60;;;;;;4970507;28;20725;-88
2021/11/23 02:22:51;;;;;;;8.10;7.50;;;2.60;56.80;;;;;;4970040;28;20450;-88
2021/11/23 02:25:18;;;;;;;7.80;7.20;;;2.60;57.10;;;;;;4970997;28;20986;-88
2021/11/23 02:27:47;;;;;;;8.70;8.00;;;2.60;56.00;;;;;;4970076;28;20421;-88
2021/11/23 02:30:13;;;;;;;8.67;8.07;;;2.60;56.30;;;;;;4970547;28;20433;-87
2021/11/23 02:32:52;;;;;;;7.97;7.47;;;2.50;56.20;;;;;;4970723;28;20422;-89
2021/11/23 02:35:19;;;;;;;8.87;8.03;;;2.50;56.10;;;;;;4970817;28;20941;-87
2021/11/23 02:37:48;;;;;;;8.77;8.17;;;2.40;56.70;;;;;;4970216;28;20792;-87
2021/11/23 02:40:15;;;;;;;8.23;7.63;;;2.40;56.60;;;;;;4970301;28;20830;-87
2021/11/23 02:42:41;;;;;;;9.05;8.38;;;2.30;56.30;;;;;;4970860;28;20186;-87
2021/11/23 02:45:07;;;;;;;9.30;8.60;;;2.30;57.20;;;;;;4970334;28;20179;-87
2021/11/23 02:47:35;;;;;;;8.80;8.20;;;2.30;57.40;;;;;;4970784;28;20277;-87
2021/11/23 02:50:01;;;;;;;8.63;8.02;;;2.30;57.10;;;;;;4970118;28;20183;-87
2021/11/23 02:52:27;;;;;;;9.05;8.45;;;2.30;57.40;;;;;;4970414;28;20252;-86
2021/11/23 02:54:57;;;;;;;9.43;8.67;;;2.30;57.60;;;;;;4970581;28;20179;-87
2021/11/23 02:57:29;;;;;;;8.77;8.18;;;2.30;57.30;;;;;;4970506;28;20421;-87
2021/11/23 02:59:55;;;;;;;8.80;8.20;;;2.30;58.50;;;;;;4970066;28;20182;-86
2021/11/23 03:02:21;;;;;;;8.87;8.23;;;2.20;57.30;;;;;;4970543;28;20422;-87
2021/11/23 03:04:50;;;;;;;8.48;7.88;;;2.10;57.40;;;;;;4969936;28;20426;-87
2021/11/23 03:07:16;;;;;;;9.27;8.60;;;2.20;57.30;;;;;;4969815;28;20670;-88
2021/11/23 03:09:42;;;;;;;8.90;8.20;;;2.30;56.90;;;;;;4970285;28;20502;-87
2021/11/23 03:12:14;;;;;;;9.17;8.40;;;2.20;57.20;;;;;;4970350;28;20178;-87
2021/11/23 03:14:39;;;;;;;9.30;8.40;;;2.20;57.20;;;;;;4969895;28;20170;-87
2021/11/23 03:17:05;;;;;;;10.27;9.50;;;2.20;57.00;;;;;;4969632;28;20266;-88
2021/11/23 03:19:31;;;;;;;9.10;8.40;;;2.20;56.70;;;;;;4969970;28;20265;-88
2021/11/23 03:21:56;;;;;;;8.47;7.77;;;2.10;57.70;;;;;;4969550;28;20210;-88
2021/11/23 03:24:23;;;;;;;9.20;8.50;;;2.00;57.30;;;;;;4970458;28;20274;-87
2021/11/23 03:26:49;;;;;;;8.93;8.32;;;2.10;57.50;;;;;;4969223;28;20182;-86
2021/11/23 03:29:16;;;;;;;9.23;8.53;;;2.00;57.50;;;;;;4969398;28;20179;-87
2021/11/23 03:31:41;;;;;;;9.82;9.13;;;1.90;58.10;;;;;;4969253;28;20556;-87
2021/11/23 03:34:07;;;;;;;10.40;9.60;;;1.90;58.80;;;;;;4969461;28;20187;-87
2021/11/23 03:36:39;;;;;;;9.20;8.60;;;1.90;58.20;;;;;;4970400;28;20300;-86
2021/11/23 03:39:05;;;;;;;9.68;8.88;;;1.90;58.00;;;;;;4970397;28;20340;-86
2021/11/23 03:41:32;;;;;;;9.20;8.55;;;1.80;58.20;;;;;;4972138;28;20203;-86
2021/11/23 03:43:58;;;;;;;10.40;9.60;;;1.80;59.40;;;;;;4972884;28;20206;-87
2021/11/23 03:46:23;;;;;;;9.40;8.70;;;1.80;58.90;;;;;;4973230;28;20175;-87
2021/11/23 03:48:49;;;;;;;10.53;9.63;;;1.80;59.80;;;;;;4972329;28;20188;-87
2021/11/23 03:51:15;;;;;;;10.00;9.27;;;1.90;58.50;;;;;;4972650;28;20551;-87
2021/11/23 03:53:41;;;;;;;10.45;9.65;;;1.80;58.70;;;;;;4972560;28;20326;-86
2021/11/23 03:56:07;;;;;;;9.60;8.90;;;1.80;58.40;;;;;;4972774;28;20187;-87
2021/11/23 03:58:37;;;;;;;10.05;9.25;;;1.90;59.30;;;;;;4972980;28;20184;-87
2021/11/23 04:01:03;;;;;;;10.43;9.32;;;1.90;58.10;;;;;;4974091;28;20260;-87
2021/11/23 04:03:29;;;;;;;10.20;9.35;;;1.90;57.50;;;;;;4973165;28;20539;-87
2021/11/23 04:05:55;;;;;;;10.47;9.67;;;1.90;58.30;;;;;;4973158;28;20178;-87
2021/11/23 04:08:20;;;;;;;10.37;9.57;;;2.00;57.80;;;;;;4972619;28;20421;-86
2021/11/23 04:10:46;;;;;;;10.40;9.60;;;2.00;57.10;;;;;;4972208;28;20182;-84
2021/11/23 04:13:12;;;;;;;11.10;10.23;;;1.90;57.80;;;;;;4972153;28;20217;-84
2021/11/23 04:15:38;;;;;;;10.63;9.83;;;1.90;58.00;;;;;;4972032;28;20422;-84
2021/11/23 04:18:03;;;;;;;10.33;9.47;;;1.90;58.50;;;;;;4971817;28;20219;-85
2021/11/23 04:20:29;;;;;;;10.13;9.33;;;2.00;59.00;;;;;;4971960;28;20685;-84
2021/11/23 04:22:55;;;;;;;9.97;8.93;;;1.90;58.00;;;;;;4971202;28;20186;-84
2021/11/23 04:25:21;;;;;;;10.83;9.87;;;1.90;58.10;;;;;;4972356;28;20175;-87
2021/11/23 04:27:48;;;;;;;10.32;9.43;;;1.80;58.30;;;;;;4972556;28;20640;-86
2021/11/23 04:30:14;;;;;;;10.45;9.45;;;1.90;58.00;;;;;;4971707;28;20176;-87
2021/11/23 04:32:42;;;;;;;9.40;8.57;;;1.90;58.50;;;;;;4972201;28;20197;-84
2021/11/23 04:35:09;;;;;;;10.25;9.43;;;1.80;58.30;;;;;;4971126;28;20187;-84
2021/11/23 04:37:35;;;;;;;10.60;9.73;;;1.90;58.30;;;;;;4971479;28;20274;-86
2021/11/23 04:40:03;;;;;;;10.88;10.02;;;1.80;57.60;;;;;;4971442;28;20680;-86
2021/11/23 04:42:29;;;;;;;10.15;9.38;;;1.80;57.70;;;;;;4971737;28;20186;-87
2021/11/23 04:44:54;;;;;;;10.10;9.30;;;1.80;58.70;;;;;;4970647;28;20179;-87
2021/11/23 04:47:20;;;;;;;9.90;9.20;;;1.80;58.00;;;;;;4976509;28;20224;-87
2021/11/23 04:49:46;;;;;;;11.33;10.53;;;1.80;58.40;;;;;;4975759;28;20210;-87
2021/11/23 04:52:11;;;;;;;10.70;9.83;;;1.70;58.30;;;;;;4971267;28;20241;-87
2021/11/23 04:54:37;;;;;;;11.50;10.60;;;1.80;58.80;;;;;;4971138;28;20174;-86
2021/11/23 04:57:04;;;;;;;11.75;10.65;;;1.70;58.60;;;;;;4971921;28;20278;-88
2021/11/23 04:59:30;;;;;;;10.35;9.60;;;1.80;58.90;;;;;;4971120;28;20863;-86
2021/11/23 05:01:55;;;;;;;9.67;8.87;;;1.90;58.60;;;;;;4975066;28;20305;-91
2021/11/23 05:04:22;;;;;;;11.10;10.30;;;1.80;58.00;;;;;;4988118;28;20791;-87
2021/11/23 05:06:48;;;;;;;10.57;9.77;;;1.80;57.70;;;;;;4973300;28;20230;-85
2021/11/23 05:09:14;;;;;;;11.53;10.63;;;1.90;58.10;;;;;;4971345;28;20635;-84
2021/11/23 05:11:43;;;;;;;11.77;10.87;;;1.80;57.80;;;;;;4971090;28;20672;-84
2021/11/23 05:14:08;;;;;;;11.07;10.18;;;1.80;58.90;;;;;;4971092;28;20205;-84
2021/11/23 05:16:34;;;;;;;12.87;11.53;;;1.80;58.20;;;;;;4971334;28;20237;-85
2021/11/23 05:18:59;;;;;;;10.30;9.30;;;1.70;58.40;;;;;;4971633;28;20185;-87
2021/11/23 05:21:25;;;;;;;11.60;10.80;;;1.60;58.20;;;;;;4966688;28;20218;-87
2021/11/23 05:23:51;;;;;;;10.97;10.07;;;1.60;58.30;;;;;;4982313;28;20179;-86
2021/11/23 05:26:16;;;;;;;11.97;10.87;;;1.60;58.20;;;;;;4981496;28;20186;-86
2021/11/23 05:28:42;;;;;;;11.97;11.07;;;1.50;58.50;;;;;;4983643;28;20697;-85
2021/11/23 05:31:08;;;;;;;11.40;10.50;;;1.50;59.50;;;;;;4979760;28;20187;-84
2021/11/23 05:33:34;;;;;;;11.20;10.30;;;1.50;58.70;;;;;;4988387;28;20255;-86
2021/11/23 05:36:00;;;;;;;11.80;10.80;;;1.50;58.50;;;;;;4972940;28;20182;-86
2021/11/23 05:38:26;;;;;;;12.03;10.90;;;1.60;59.20;;;;;;4972018;28;20193;-84
2021/11/23 05:40:51;;;;;;;11.90;11.00;;;1.60;59.30;;;;;;4973090;28;20213;-82
2021/11/23 05:43:17;;;;;;;11.27;10.37;;;1.50;59.30;;;;;;4969370;28;20200;-87
2021/11/23 05:45:44;;;;;;;13.17;12.10;;;1.60;58.40;;;;;;4969071;28;20234;-85
2021/11/23 05:48:10;;;;;;;12.80;11.80;;;1.50;59.30;;;;;;4969304;28;20183;-84
2021/11/23 05:50:36;;;;;;;12.13;10.85;;;1.50;58.40;;;;;;4955117;28;20814;-82
2021/11/23 05:53:02;;;;;;;13.60;12.60;;;1.50;58.50;;;;;;4969734;28;20231;-84
2021/11/23 05:55:29;;;;;;;12.00;10.93;;;1.40;59.40;;;;;;4969867;28;20179;-83
2021/11/23 05:57:54;;;;;;;13.07;11.95;;;1.40;59.10;;;;;;4970228;28;20180;-86
2021/11/23 06:00:20;;;;;;;12.03;11.07;;;1.30;59.40;;;;;;4972795;28;20215;-84
2021/11/23 06:02:46;;;;;;;12.97;11.87;;;1.40;59.20;;;;;;4972051;28;20446;-82
2021/11/23 06:05:11;;;;;;;12.33;11.33;;;1.40;59.40;;;;;;4972316;28;20185;-85
2021/11/23 06:07:37;;;;;;;12.87;11.87;;;1.40;58.60;;;;;;4969138;28;20178;-85
2021/11/23 06:10:03;;;;;;;13.30;12.30;;;1.50;59.10;;;;;;4986628;28;20175;-83
2021/11/23 06:12:30;;;;;;;11.70;10.70;;;1.50;59.10;;;;;;4952029;29;20182;-82
2021/11/23 06:14:55;;;;;;;12.90;11.80;;;1.40;59.00;;;;;;4953042;29;20426;-83
2021/11/23 06:17:21;;;;;;;12.30;11.30;;;1.40;58.90;;;;;;4952056;29;20175;-83
2021/11/23 06:19:48;;;;;;;12.20;11.00;;;1.30;59.90;;;;;;4952645;29;20171;-83
2021/11/23 06:22:13;;;;;;;12.68;11.68;;;1.30;59.40;;;;;;4952489;29;20441;-83
2021/11/23 06:24:39;;;;;;;13.17;12.07;;;1.30;59.80;;;;;;4953421;29;20253;-83
2021/11/23 06:27:05;;;;;;;13.80;12.70;;;1.30;59.90;;;;;;4952728;29;20185;-83
2021/11/23 06:29:31;;;;;;;12.60;11.53;;;1.30;59.60;;;;;;4953038;29;20282;-82
2021/11/23 06:31:58;;;;;;;125.87;28.53;;;1.30;59.40;;;;;;4960177;28;20438;-83
2021/11/23 06:34:24;;;;;;;13.07;12.07;;;1.30;66.00;;;;;;4974081;28;20187;-84
2021/11/23 06:36:49;;;;;;;13.23;12.13;;;1.40;62.60;;;;;;4985772;28;20868;-82
2021/11/23 06:39:15;;;;;;;12.37;11.20;;;1.50;62.20;;;;;;4968285;28;20942;-84
2021/11/23 06:41:41;;;;;;;13.63;12.40;;;1.40;60.90;;;;;;4972069;28;20204;-83
2021/11/23 06:44:08;;;;;;;13.07;11.97;;;1.50;61.30;;;;;;4988562;28;20659;-84
2021/11/23 06:46:33;;;;;;;14.02;12.85;;;1.40;59.80;;;;;;4968783;28;20414;-82
2021/11/23 06:49:00;;;;;;;13.37;12.27;;;1.40;61.80;;;;;;4953977;28;21013;-86
2021/11/23 06:51:26;;;;;;;15.27;13.80;;;1.30;60.30;;;;;;4972964;28;20194;-82
2021/11/23 06:53:52;;;;;;;15.15;13.70;;;1.30;60.60;;;;;;4986608;28;20475;-82
2021/11/23 06:56:18;;;;;;;14.43;13.23;;;1.40;61.80;;;;;;4969177;28;20269;-84
2021/11/23 06:58:44;;;;;;;15.63;14.23;;;1.30;60.50;;;;;;4961421;28;20177;-83
2021/11/23 07:01:09;;;;;;;16.60;15.20;;;1.40;61.30;;;;;;4962454;28;20458;-82
2021/11/23 07:03:40;;;;;;;15.83;14.63;;;1.40;61.50;;;;;;4971448;28;20436;-82
2021/11/23 07:06:06;;;;;;;14.95;13.65;;;1.40;61.10;;;;;;4972534;28;20169;-86
2021/11/23 07:08:32;;;;;;;14.20;13.10;;;1.40;60.40;;;;;;4972030;28;20177;-86
2021/11/23 07:10:57;;;;;;;14.00;12.90;;;1.40;59.70;;;;;;4971302;28;20179;-85
2021/11/23 07:13:23;;;;;;;14.90;13.67;;;1.30;59.60;;;;;;4971921;28;20426;-85
2021/11/23 07:15:49;;;;;;;14.03;12.63;;;1.40;61.10;;;;;;4966545;28;20241;-85
2021/11/23 07:18:15;;;;;;;13.43;12.43;;;1.30;59.50;;;;;;4971352;28;20187;-83
2021/11/23 07:20:44;;;;;;;14.50;12.97;;;1.40;60.20;;;;;;4954909;29;20689;-86
2021/11/23 07:23:10;;;;;;;13.68;12.57;;;1.40;59.90;;;;;;4955528;29;20263;-84
2021/11/23 07:25:35;;;;;;;13.20;12.17;;;1.30;58.80;;;;;;4956412;29;20682;-86
2021/11/23 07:28:01;;;;;;;15.20;13.90;;;1.30;59.40;;;;;;4955053;29;20411;-87
2021/11/23 07:30:27;;;;;;;16.13;14.40;;;1.30;60.00;;;;;;4956089;29;20580;-88
2021/11/23 07:32:53;;;;;;;15.47;14.00;;;1.40;60.40;;;;;;4955712;29;20549;-87
2021/11/23 07:35:18;;;;;;;15.47;14.07;;;1.50;60.40;;;;;;4955878;29;20856;-88
2021/11/23 07:37:45;;;;;;;15.27;13.87;;;1.40;59.70;;;;;;4955476;29;20179;-86
2021/11/23 07:40:11;;;;;;;15.20;13.88;;;1.50;60.30;;;;;;4955899;29;20451;-85
2021/11/23 07:42:38;;;;;;;14.60;13.50;;;1.40;58.80;;;;;;4955896;29;20542;-86
2021/11/23 07:45:04;;;;;;;18.55;13.45;;;1.40;59.70;;;;;;4955414;29;20260;-87
2021/11/23 07:47:30;;;;;;;14.77;13.60;;;1.30;59.10;;;;;;4955666;29;20234;-86
2021/11/23 07:49:56;;;;;;;13.17;12.07;;;1.40;59.50;;;;;;4956457;28;20172;-83
2021/11/23 07:52:21;;;;;;;12.80;11.80;;;1.40;59.20;;;;;;4955537;29;20181;-84
2021/11/23 07:54:47;;;;;;;13.70;12.60;;;1.40;59.40;;;;;;4955279;29;20180;-83
2021/11/23 07:57:13;;;;;;;14.03;12.17;;;1.50;58.50;;;;;;4955361;29;20175;-83
2021/11/23 07:59:38;;;;;;;13.73;12.57;;;1.50;58.90;;;;;;4955683;29;20544;-84
2021/11/23 08:02:04;;;;;;;13.30;12.10;;;1.50;59.20;;;;;;4956029;29;20668;-83
2021/11/23 08:04:30;;;;;;;13.90;12.80;;;1.50;58.90;;;;;;4955447;29;20187;-79
2021/11/23 08:06:55;;;;;;;13.93;12.53;;;1.50;59.00;;;;;;4955804;29;21037;-78
2021/11/23 08:09:21;;;;;;;12.30;11.33;;;1.60;59.10;;;;;;4955975;29;20179;-83
2021/11/23 08:11:46;;;;;;;13.50;12.40;;;1.60;58.60;;;;;;4956109;28;20179;-84
2021/11/23 08:14:12;;;;;;;13.40;12.33;;;1.60;59.30;;;;;;4990432;28;20223;-83
2021/11/23 08:16:38;;;;;;;14.73;13.30;;;1.60;58.70;;;;;;4972837;28;20284;-85
2021/11/23 08:19:04;;;;;;;13.33;12.33;;;1.60;58.70;;;;;;4991286;28;20181;-83
2021/11/23 08:21:30;;;;;;;14.07;12.67;;;1.80;59.50;;;;;;4974586;28;20272;-86
2021/11/23 08:23:56;;;;;;;15.27;13.98;;;1.70;58.20;;;;;;4975190;28;20175;-84
2021/11/23 08:26:23;;;;;;;14.68;13.43;;;1.80;59.00;;;;;;4972809;28;20182;-85
2021/11/23 08:28:49;;;;;;;14.43;13.32;;;1.90;58.80;;;;;;4974454;28;20201;-84
2021/11/23 08:31:15;;;;;;;13.15;12.02;;;1.80;57.70;;;;;;4974199;28;20213;-84
2021/11/23 08:33:41;;;;;;;13.10;11.97;;;1.90;58.20;;;;;;4974308;28;20213;-84
2021/11/23 08:36:08;;;;;;;12.17;11.07;;;1.80;57.60;;;;;;4975050;28;20520;-84
2021/11/23 08:38:35;;;;;;;13.75;12.45;;;1.90;58.00;;;;;;4974698;28;20182;-84
2021/11/23 08:41:01;;;;;;;13.55;12.25;;;2.00;57.60;;;;;;4974433;28;20270;-84
2021/11/23 08:43:26;;;;;;;13.33;12.23;;;2.10;57.00;;;;;;4974685;28;20549;-83
2021/11/23 08:45:52;;;;;;;12.43;11.37;;;2.10;56.50;;;;;;4974573;28;20213;-83
2021/11/23 08:48:18;;;;;;;12.80;11.67;;;2.10;56.90;;;;;;4974744;28;20175;-83
2021/11/23 08:50:44;;;;;;;11.70;10.70;;;2.10;56.10;;;;;;4974435;28;20224;-83
2021/11/23 08:53:10;;;;;;;12.77;11.77;;;2.10;56.30;;;;;;4974970;28;20509;-85
2021/11/23 08:55:37;;;;;;;11.67;10.70;;;2.20;56.60;;;;;;4974103;28;20697;-85
2021/11/23 08:58:05;;;;;;;12.30;11.20;;;2.20;55.70;;;;;;4974774;28;20185;-85
2021/11/23 09:00:32;;;;;;;11.98;10.98;;;2.30;56.20;;;;;;4974203;28;20646;-83
2021/11/23 09:03:00;;;;;;;11.15;10.30;;;2.20;55.50;;;;;;4974422;28;20179;-83
2021/11/23 09:05:31;;;;;;;11.80;10.73;;;2.20;55.40;;;;;;4974171;28;20174;-83
2021/11/23 09:07:59;;;;;;;11.13;10.35;;;2.30;55.50;;;;;;4974350;28;20410;-84
2021/11/23 09:10:27;;;;;;;11.65;10.75;;;2.20;54.90;;;;;;4974284;28;20182;-83
2021/11/23 09:12:55;;;;;;;11.10;10.10;;;2.30;55.20;;;;;;4974278;28;20182;-83
2021/11/23 09:15:21;;;;;;;11.67;10.77;;;2.40;54.90;;;;;;4974009;28;20178;-83
2021/11/23 09:17:47;;;;;;;10.90;10.00;;;2.40;53.50;;;;;;4974067;28;20477;-84
2021/11/23 09:20:19;;;;;;;11.35;10.43;;;2.50;53.90;;;;;;4974429;28;20428;-83
2021/11/23 09:22:46;;;;;;;11.10;10.07;;;2.40;53.70;;;;;;4974020;28;20222;-83
2021/11/23 09:25:14;;;;;;;11.75;10.85;;;2.40;53.00;;;;;;4973981;28;20597;-82
2021/11/23 09:27:40;;;;;;;11.00;10.00;;;2.50;53.00;;;;;;4973823;28;20655;-83
2021/11/23 09:30:12;;;;;;;10.13;9.37;;;2.60;53.60;;;;;;4973999;28;20417;-83
2021/11/23 09:32:43;;;;;;;11.70;10.47;;;2.70;53.60;;;;;;4974265;28;20493;-87
2021/11/23 09:35:11;;;;;;;11.13;10.23;;;2.70;52.30;;;;;;4974006;28;20441;-85
2021/11/23 09:37:37;;;;;;;11.82;10.82;;;2.70;51.70;;;;;;4973574;28;20899;-84
2021/11/23 09:40:04;;;;;;;10.90;10.03;;;2.70;52.30;;;;;;4973613;28;20175;-83
2021/11/23 09:42:30;;;;;;;11.77;10.75;;;2.80;52.20;;;;;;4974660;28;20528;-82
2021/11/23 09:44:56;;;;;;;12.20;11.00;;;2.90;52.60;;;;;;4973771;28;20257;-84
2021/11/23 09:47:27;;;;;;;12.47;11.47;;;3.00;52.70;;;;;;4973006;28;20658;-83
2021/11/23 09:49:55;;;;;;;11.80;10.70;;;3.10;51.50;;;;;;4973408;28;20425;-84
2021/11/23 09:52:21;;;;;;;12.07;11.17;;;3.00;51.40;;;;;;4973138;28;20907;-84
2021/11/23 09:54:46;;;;;;;10.97;9.87;;;3.00;50.90;;;;;;4973296;28;20701;-83
2021/11/23 09:57:12;;;;;;;12.00;11.00;;;2.90;50.80;;;;;;4972947;28;20171;-84
2021/11/23 09:59:38;;;;;;;11.30;10.17;;;2.90;50.70;;;;;;4973195;28;20185;-83
2021/11/23 10:02:04;;;;;;;11.77;10.77;;;2.90;51.30;;;;;;4972691;28;20213;-84
2021/11/23 10:04:31;;;;;;;13.03;11.93;;;2.90;51.70;;;;;;4972868;28;20182;-83
2021/11/23 10:07:03;;;;;;;10.77;9.90;;;2.90;51.30;;;;;;4972785;28;20551;-83
2021/11/23 10:09:32;;;;;;;12.77;11.57;;;2.90;51.90;;;;;;4973136;28;20770;-83
2021/11/23 10:12:21;;;;;;;12.60;11.40;;;3.00;52.70;;;;;;4972525;28;20422;-83
2021/11/23 10:15:17;;;;;;;11.90;10.80;;;3.10;52.10;;;;;;4970203;28;20418;-83
2021/11/23 10:17:46;;;;;;;12.53;11.43;;;3.20;51.60;;;;;;4953336;29;20426;-84
2021/11/23 10:20:24;;;;;;;13.00;11.80;;;3.10;51.20;;;;;;4953526;29;20454;-83
2021/11/23 10:22:50;;;;;;;11.47;10.57;;;3.20;51.80;;;;;;4954773;28;20489;-83
2021/11/23 10:25:16;;;;;;;12.67;11.53;;;3.20;51.60;;;;;;4953524;29;20423;-83
2021/11/23 10:27:43;;;;;;;12.17;11.27;;;3.20;50.90;;;;;;4954919;28;20178;-82
2021/11/23 10:30:10;;;;;;;12.47;11.53;;;3.10;50.80;;;;;;4953918;29;20175;-84
2021/11/23 10:32:46;;;;;;;11.17;10.27;;;3.10;50.70;;;;;;4953867;29;20429;-85
2021/11/23 10:35:17;;;;;;;12.07;11.03;;;3.20;51.50;;;;;;4954727;29;20419;-87
2021/11/23 10:37:43;;;;;;;13.37;12.27;;;3.20;51.10;;;;;;4958101;29;20426;-84
2021/11/23 10:40:17;;;;;;;14.10;12.90;;;3.20;50.70;;;;;;4965703;29;20426;-87
2021/11/23 10:42:58;;;;;;;12.27;11.33;;;3.20;51.10;;;;;;4959178;29;20551;-84
2021/11/23 10:45:24;;;;;;;12.40;11.23;;;3.30;51.50;;;;;;4954218;29;20403;-84
2021/11/23 10:47:50;;;;;;;11.03;10.00;;;3.30;51.00;;;;;;4954893;28;20422;-84
2021/11/23 10:50:19;;;;;;;11.20;10.33;;;3.40;49.70;;;;;;4959151;28;20422;-84
2021/11/23 10:52:48;;;;;;;11.23;10.33;;;3.40;50.40;;;;;;4959913;29;20422;-84
2021/11/23 10:55:17;;;;;;;11.23;10.23;;;3.50;50.40;;;;;;4960144;29;20525;-83
2021/11/23 10:57:43;;;;;;;11.77;10.77;;;3.60;49.80;;;;;;4959956;28;20971;-83
2021/11/23 11:00:11;;;;;;;11.00;10.00;;;3.60;49.80;;;;;;4960615;28;20441;-87
2021/11/23 11:02:39;;;;;;;12.70;9.67;;;3.70;49.80;;;;;;4960708;28;20422;-87
2021/11/23 11:05:08;;;;;;;9.00;8.30;;;3.70;48.90;;;;;;4960633;28;20422;-85
2021/11/23 11:07:35;;;;;;;11.13;10.23;;;3.80;48.80;;;;;;4960221;28;20410;-87
2021/11/23 11:10:02;;;;;;;10.67;9.70;;;3.80;49.50;;;;;;4960411;28;20931;-87
2021/11/23 11:12:28;;;;;;;9.73;8.83;;;3.90;49.70;;;;;;4960623;28;20885;-88
2021/11/23 11:14:57;;;;;;;10.57;9.60;;;4.00;48.00;;;;;;4960249;28;20538;-86
2021/11/23 11:17:24;;;;;;;10.20;9.17;;;3.90;47.40;;;;;;4962161;28;20175;-88
2021/11/23 11:19:52;;;;;;;11.33;10.03;;;4.10;48.80;;;;;;4960210;29;20415;-85
2021/11/23 11:22:22;;;;;;;10.50;9.70;;;4.10;48.10;;;;;;4960184;29;20466;-84
2021/11/23 11:27:41;;;;;;;8.77;8.03;;;4.20;47.80;;;;;;4962782;28;20414;-85
2021/11/23 11:30:35;;;;;;;8.10;7.33;;;4.20;47.60;;;;;;4961824;28;20493;-85
2021/11/23 11:33:11;;;;;;;8.87;8.27;;;4.20;47.60;;;;;;4960902;29;20486;-88
2021/11/23 11:35:49;;;;;;;9.13;8.33;;;4.20;47.70;;;;;;4960442;29;20426;-89
2021/11/23 11:38:27;;;;;;;9.10;8.30;;;4.30;47.40;;;;;;4959877;28;20399;-85
2021/11/23 11:40:54;;;;;;;7.70;7.20;;;4.30;47.10;;;;;;4959791;28;20552;-85
2021/11/23 11:43:20;;;;;;;7.70;7.10;;;4.40;46.70;;;;;;4959843;29;20481;-85
2021/11/23 11:45:49;;;;;;;7.70;6.73;;;4.40;45.40;;;;;;4959789;28;20854;-86
2021/11/23 11:48:30;;;;;;;8.10;6.30;;;4.50;45.20;;;;;;4959906;28;20418;-85
2021/11/23 11:50:57;;;;;;;7.40;6.80;;;4.50;45.90;;;;;;4959625;29;20943;-85
2021/11/23 11:53:22;;;;;;;7.70;7.03;;;4.50;46.20;;;;;;4959475;29;20497;-85
2021/11/23 11:55:50;;;;;;;7.07;6.57;;;4.50;46.40;;;;;;4960797;28;20414;-85
2021/11/23 11:58:43;;;;;;;6.77;6.27;;;4.60;45.30;;;;;;4959357;29;20231;-86
2021/11/23 12:01:18;;;;;;;7.40;6.90;;;4.70;45.70;;;;;;4957412;28;20465;-85
2021/11/23 12:03:44;;;;;;;6.63;6.00;;;4.60;45.40;;;;;;4956254;29;20434;-83
2021/11/23 12:06:10;;;;;;;5.97;5.47;;;4.70;46.30;;;;;;4956158;29;20427;-82
2021/11/23 12:08:38;;;;;;;6.70;6.10;;;4.90;44.80;;;;;;4955903;29;20183;-82
2021/11/23 12:11:09;;;;;;;6.47;5.87;;;5.00;44.10;;;;;;4956067;29;20552;-82
2021/11/23 12:13:54;;;;;;;5.67;5.20;;;5.10;43.90;;;;;;4956016;29;20435;-82
2021/11/23 12:16:43;;;;;;;26.93;20.97;;;5.10;43.00;;;;;;4955985;29;20923;-82
2021/11/23 12:19:42;;;;;;;8.00;7.20;;;5.10;42.20;;;;;;4955996;29;20431;-82
2021/11/23 12:22:20;;;;;;;8.00;7.40;;;5.10;43.40;;;;;;4955837;29;20493;-83
2021/11/23 12:24:46;;;;;;;8.77;8.10;;;5.30;42.30;;;;;;4955899;29;20780;-83
2021/11/23 12:27:15;;;;;;;7.07;6.57;;;5.30;42.70;;;;;;4956879;28;20418;-84
2021/11/23 12:29:41;;;;;;;6.50;5.97;;;5.40;44.40;;;;;;4955998;29;20470;-83
2021/11/23 12:32:07;;;;;;;6.57;6.17;;;5.40;44.60;;;;;;4955627;29;20423;-83
2021/11/23 12:34:33;;;;;;;6.50;6.00;;;5.50;42.90;;;;;;4957324;29;20469;-83
2021/11/23 12:37:00;;;;;;;6.00;5.50;;;5.40;41.90;;;;;;4955417;29;20434;-82
2021/11/23 12:39:34;;;;;;;6.50;6.00;;;5.40;42.00;;;;;;4955725;28;20422;-83
2021/11/23 12:42:06;;;;;;;6.20;5.70;;;5.30;42.00;;;;;;4955281;29;20454;-87
2021/11/23 12:44:39;;;;;;;8.03;7.33;;;5.30;42.30;;;;;;4955393;29;20773;-86
2021/11/23 12:47:11;;;;;;;6.50;6.00;;;5.30;42.80;;;;;;4955028;29;20438;-87
2021/11/23 12:49:38;;;;;;;6.80;6.20;;;5.30;41.50;;;;;;4955440;29;20419;-90